Time;durP1;ratioP1;P1;durP2;ratioP2;P2;SDS_P1;SDS_P2;PMS_P1;PMS_P2;Temp;Humidity;BMP_temperature;BMP_pressure;BME280_temperature;BME280_humidity;BME280_pressure;Samples;Min_cycle;Max_cycle;Signal;HPM_P1;HPM_P2
2022/05/31 00:01:22;;;;;;;8.38;4.93;;;;;;;;;;5072358;28;20068;-81
2022/05/31 00:03:48;;;;;;;8.50;4.57;;;;;;;;;;5076925;28;20044;-83
2022/05/31 00:06:14;;;;;;;21.52;5.22;;;;;;;;;;5071095;28;20048;-77
2022/05/31 00:08:40;;;;;;;13.57;5.13;;;;;;;;;;5070328;28;20037;-77
2022/05/31 00:11:06;;;;;;;20.38;5.20;;;;;;;;;;5069107;28;20056;-78
2022/05/31 00:13:32;;;;;;;15.68;5.13;;;;;;;;;;5068862;28;20123;-76
2022/05/31 00:15:58;;;;;;;11.43;4.47;;;;;;;;;;5071056;28;20044;-79
2022/05/31 00:18:24;;;;;;;20.77;4.65;;;;;;;;;;5052015;28;20044;-78
2022/05/31 00:20:50;;;;;;;11.02;4.97;;;;;;;;;;5069038;28;20043;-78
2022/05/31 00:23:16;;;;;;;11.80;4.82;;;;;;;;;;5068468;28;20037;-78
2022/05/31 00:25:42;;;;;;;11.45;4.65;;;;;;;;;;5070167;28;20144;-81
2022/05/31 00:28:08;;;;;;;8.38;4.40;;;;;;;;;;5070004;28;20051;-83
2022/05/31 00:30:34;;;;;;;13.10;5.95;;;;;;;;;;5070751;28;20057;-82
2022/05/31 00:33:00;;;;;;;14.95;4.45;;;;;;;;;;5079164;28;20041;-83
2022/05/31 00:35:30;;;;;;;8.07;3.95;;;;;;;;;;5080006;28;20052;-82
2022/05/31 00:37:56;;;;;;;14.15;3.63;;;;;;;;;;5072649;28;20036;-80
2022/05/31 00:40:23;;;;;;;15.57;4.30;;;;;;;;;;5074279;28;20064;-82
2022/05/31 00:42:57;;;;;;;7.68;3.13;;;;;;;;;;5070577;28;20537;-81
2022/05/31 00:45:34;;;;;;;7.03;3.42;;;;;;;;;;5071035;28;20512;-81
2022/05/31 00:48:00;;;;;;;13.65;3.60;;;;;;;;;;5070458;28;20051;-82
2022/05/31 00:50:27;;;;;;;8.65;3.70;;;;;;;;;;5069744;28;20496;-80
2022/05/31 00:52:54;;;;;;;12.23;4.43;;;;;;;;;;5051503;28;20047;-80
2022/05/31 00:55:31;;;;;;;10.95;3.78;;;;;;;;;;5071691;28;20064;-81
2022/05/31 00:58:00;;;;;;;8.95;4.18;;;;;;;;;;5072015;28;20500;-79
2022/05/31 01:00:26;;;;;;;5.25;3.38;;;;;;;;;;5071862;28;20578;-80
2022/05/31 01:02:52;;;;;;;6.20;3.90;;;;;;;;;;5071895;28;20051;-81
2022/05/31 01:05:18;;;;;;;8.70;3.88;;;;;;;;;;5088152;28;20054;-80
2022/05/31 01:07:44;;;;;;;11.02;4.03;;;;;;;;;;5055183;28;20036;-80
2022/05/31 01:10:10;;;;;;;6.35;3.53;;;;;;;;;;5054932;28;20540;-82
2022/05/31 01:12:56;;;;;;;4.20;3.20;;;;;;;;;;5076544;28;20046;-80
2022/05/31 01:15:41;;;;;;;5.15;3.22;;;;;;;;;;5071852;28;20044;-81
2022/05/31 01:18:25;;;;;;;11.02;3.50;;;;;;;;;;5089666;28;20063;-81
2022/05/31 01:21:27;;;;;;;6.40;3.70;;;;;;;;;;5029451;28;20093;-81
2022/05/31 01:24:13;;;;;;;11.80;4.55;;;;;;;;;;5068725;28;20044;-80
2022/05/31 01:26:39;;;;;;;14.85;4.20;;;;;;;;;;5071645;28;20048;-80
2022/05/31 01:29:10;;;;;;;9.98;3.50;;;;;;;;;;5072794;28;20047;-82
2022/05/31 01:31:41;;;;;;;9.32;3.33;;;;;;;;;;5072345;28;20537;-81
2022/05/31 01:34:09;;;;;;;5.60;3.35;;;;;;;;;;5071454;28;20044;-80
2022/05/31 01:36:38;;;;;;;3.75;2.83;;;;;;;;;;5089106;28;20578;-82
2022/05/31 01:39:05;;;;;;;9.57;3.35;;;;;;;;;;5072036;28;20032;-82
2022/05/31 01:41:37;;;;;;;14.85;4.80;;;;;;;;;;5054059;28;20101;-81
2022/05/31 01:44:03;;;;;;;8.80;3.60;;;;;;;;;;5072105;28;20028;-78
2022/05/31 01:46:30;;;;;;;9.32;3.35;;;;;;;;;;5072265;28;20055;-81
2022/05/31 01:48:56;;;;;;;4.88;3.33;;;;;;;;;;5072666;28;20032;-80
2022/05/31 01:51:21;;;;;;;8.55;3.85;;;;;;;;;;5080118;28;20062;-83
2022/05/31 01:53:47;;;;;;;15.30;3.70;;;;;;;;;;5082818;28;20044;-83
2022/05/31 01:56:13;;;;;;;8.05;3.88;;;;;;;;;;5098907;28;20085;-82
2022/05/31 01:58:39;;;;;;;7.85;3.13;;;;;;;;;;5085190;28;20055;-82
2022/05/31 02:01:05;;;;;;;7.03;3.40;;;;;;;;;;5083673;28;20044;-82
2022/05/31 02:03:32;;;;;;;6.43;3.38;;;;;;;;;;5087216;28;20036;-84
2022/05/31 02:05:59;;;;;;;6.82;3.38;;;;;;;;;;5079949;28;20070;-80
2022/05/31 02:08:25;;;;;;;5.20;3.80;;;;;;;;;;5094844;28;20103;-81
2022/05/31 02:10:51;;;;;;;3.40;3.10;;;;;;;;;;5103206;28;20080;-81
2022/05/31 02:13:17;;;;;;;12.85;4.10;;;;;;;;;;5106185;28;20020;-82
2022/05/31 02:16:07;;;;;;;12.13;4.30;;;;;;;;;;5075382;28;20172;-83
2022/05/31 02:21:53;;;;;;;4.03;3.58;;;;;;;;;;5074256;28;20503;-82
2022/05/31 02:24:19;;;;;;;4.47;3.20;;;;;;;;;;5081422;28;20043;-82
2022/05/31 02:26:45;;;;;;;5.20;2.80;;;;;;;;;;5087575;28;20040;-79
2022/05/31 02:29:11;;;;;;;5.32;2.72;;;;;;;;;;5088412;28;20645;-80
2022/05/31 02:31:37;;;;;;;6.03;3.30;;;;;;;;;;5070453;28;20040;-80
2022/05/31 02:34:03;;;;;;;3.08;2.85;;;;;;;;;;5070252;28;20036;-79
2022/05/31 02:36:29;;;;;;;2.40;2.22;;;;;;;;;;5069318;28;20037;-82
2022/05/31 02:38:55;;;;;;;6.00;2.95;;;;;;;;;;5088051;28;20050;-82
2022/05/31 02:41:31;;;;;;;3.10;2.30;;;;;;;;;;5059223;28;20101;-80
2022/05/31 02:43:58;;;;;;;7.07;2.53;;;;;;;;;;5049978;28;20500;-79
2022/05/31 02:46:24;;;;;;;2.17;2.00;;;;;;;;;;5068601;28;20051;-76
2022/05/31 02:48:50;;;;;;;3.67;2.67;;;;;;;;;;5069848;28;20060;-75
2022/05/31 02:51:16;;;;;;;2.92;2.50;;;;;;;;;;5036595;28;20058;-74
2022/05/31 02:53:42;;;;;;;2.38;2.17;;;;;;;;;;5081023;28;20105;-76
2022/05/31 02:56:08;;;;;;;3.65;2.72;;;;;;;;;;5049780;28;20036;-76
2022/05/31 02:59:00;;;;;;;3.00;2.20;;;;;;;;;;5035493;28;20386;-75
2022/05/31 03:01:45;;;;;;;2.30;2.10;;;;;;;;;;5037958;28;20462;-75
2022/05/31 03:04:40;;;;;;;2.45;2.25;;;;;;;;;;5033859;28;20037;-75
2022/05/31 03:07:44;;;;;;;2.83;2.60;;;;;;;;;;4985196;28;20039;-76
2022/05/31 03:10:14;;;;;;;2.57;2.37;;;;;;;;;;4985575;28;20173;-75
2022/05/31 03:12:40;;;;;;;2.00;1.90;;;;;;;;;;5015446;28;20434;-75
2022/05/31 03:15:11;;;;;;;2.40;2.30;;;;;;;;;;5013295;28;20136;-75
2022/05/31 03:17:37;;;;;;;2.78;2.50;;;;;;;;;;5029293;28;20037;-75
2022/05/31 03:20:13;;;;;;;2.30;2.10;;;;;;;;;;5047329;28;20521;-77
2022/05/31 03:22:41;;;;;;;3.08;2.33;;;;;;;;;;5047102;28;20045;-76
2022/05/31 03:25:11;;;;;;;3.00;2.80;;;;;;;;;;5066953;28;20067;-74
2022/05/31 03:27:37;;;;;;;3.55;1.75;;;;;;;;;;5067214;28;20040;-74
2022/05/31 03:30:02;;;;;;;2.72;2.10;;;;;;;;;;5053200;28;20044;-77
2022/05/31 03:32:32;;;;;;;2.15;2.05;;;;;;;;;;5070755;28;20114;-77
2022/05/31 03:34:58;;;;;;;1.95;1.85;;;;;;;;;;5036700;28;20044;-77
2022/05/31 03:37:24;;;;;;;3.20;2.90;;;;;;;;;;5070650;28;20420;-76
2022/05/31 03:39:51;;;;;;;4.88;2.38;;;;;;;;;;5053336;28;20048;-77
2022/05/31 03:42:17;;;;;;;2.83;2.63;;;;;;;;;;5053141;28;20040;-76
2022/05/31 03:44:43;;;;;;;2.80;2.60;;;;;;;;;;5052797;28;20083;-76
2022/05/31 03:47:32;;;;;;;5.03;2.20;;;;;;;;;;5052387;28;20049;-76
2022/05/31 03:50:18;;;;;;;2.10;1.90;;;;;;;;;;5070907;28;20167;-77
2022/05/31 03:52:45;;;;;;;1.58;1.55;;;;;;;;;;5068866;28;20562;-76
2022/05/31 03:55:12;;;;;;;2.13;2.03;;;;;;;;;;5071431;28;20581;-77
2022/05/31 03:57:50;;;;;;;4.13;2.08;;;;;;;;;;5057701;28;20074;-76
2022/05/31 04:00:30;;;;;;;3.10;2.42;;;;;;;;;;5072468;28;20571;-74
2022/05/31 04:03:09;;;;;;;2.47;1.90;;;;;;;;;;5072769;28;20125;-73
2022/05/31 04:05:55;;;;;;;2.28;2.08;;;;;;;;;;5035913;28;20041;-73
2022/05/31 04:08:24;;;;;;;2.22;2.13;;;;;;;;;;5070147;28;20465;-73
2022/05/31 04:10:50;;;;;;;2.15;2.05;;;;;;;;;;5052712;28;20052;-73
2022/05/31 04:13:16;;;;;;;2.30;2.20;;;;;;;;;;5052243;28;20381;-72
2022/05/31 04:16:10;;;;;;;2.30;2.20;;;;;;;;;;5062230;28;20048;-74
2022/05/31 04:18:39;;;;;;;2.15;2.05;;;;;;;;;;5037521;28;20193;-74
2022/05/31 04:21:06;;;;;;;2.13;2.03;;;;;;;;;;5071936;28;20130;-72
2022/05/31 04:26:37;;;;;;;2.95;2.72;;;;;;;;;;5089965;28;20036;-74
2022/05/31 04:29:22;;;;;;;4.18;3.85;;;;;;;;;;5090165;28;20511;-75
2022/05/31 04:32:06;;;;;;;5.45;3.28;;;;;;;;;;5090046;28;20101;-75
2022/05/31 04:34:55;;;;;;;4.78;2.88;;;;;;;;;;5082237;28;20511;-76
2022/05/31 04:37:21;;;;;;;4.03;2.92;;;;;;;;;;5071855;28;20091;-75
2022/05/31 04:40:08;;;;;;;4.10;2.70;;;;;;;;;;5040328;28;20673;-76
2022/05/31 04:42:43;;;;;;;1.67;1.67;;;;;;;;;;5089693;28;20042;-75
2022/05/31 04:45:25;;;;;;;3.25;2.22;;;;;;;;;;5071663;28;20043;-73
2022/05/31 04:47:51;;;;;;;3.10;2.80;;;;;;;;;;5071952;28;20054;-74
2022/05/31 04:50:18;;;;;;;2.88;2.70;;;;;;;;;;5071742;28;20047;-76
2022/05/31 04:52:44;;;;;;;2.63;2.53;;;;;;;;;;5089540;28;20038;-75
2022/05/31 04:55:10;;;;;;;2.60;2.40;;;;;;;;;;5072136;28;20048;-75
2022/05/31 04:57:41;;;;;;;;;;;;;;;;;;5055309;28;20055;-75
2022/05/31 05:00:08;;;;;;;4.85;2.65;;;;;;;;;;5071952;28;20299;-75
2022/05/31 05:02:43;;;;;;;2.88;2.40;;;;;;;;;;5070940;28;20043;-76
2022/05/31 05:05:09;;;;;;;2.67;2.50;;;;;;;;;;5071222;28;20047;-70
2022/05/31 05:07:48;;;;;;;2.10;2.00;;;;;;;;;;5070846;28;20420;-70
2022/05/31 05:10:17;;;;;;;3.58;2.20;;;;;;;;;;5071180;28;20087;-70
2022/05/31 05:13:02;;;;;;;3.55;2.17;;;;;;;;;;5071011;28;20040;-71
2022/05/31 05:15:46;;;;;;;2.75;2.15;;;;;;;;;;5088798;28;20043;-71
2022/05/31 05:18:12;;;;;;;3.03;2.70;;;;;;;;;;5089442;28;20036;-70
2022/05/31 05:20:41;;;;;;;4.22;2.50;;;;;;;;;;5067218;28;20122;-72
2022/05/31 05:23:07;;;;;;;2.70;2.50;;;;;;;;;;5067207;28;20522;-72
2022/05/31 05:25:33;;;;;;;3.00;2.70;;;;;;;;;;5051347;28;20036;-72
2022/05/31 05:28:00;;;;;;;9.60;2.55;;;;;;;;;;5066422;28;20254;-72
2022/05/31 05:30:41;;;;;;;2.75;2.47;;;;;;;;;;5057622;28;20044;-72
2022/05/31 05:33:19;;;;;;;2.42;2.33;;;;;;;;;;5076433;28;20043;-71
2022/05/31 05:36:03;;;;;;;3.17;2.55;;;;;;;;;;5074575;28;20064;-73
2022/05/31 05:38:29;;;;;;;8.82;2.78;;;;;;;;;;5058159;28;20047;-69
2022/05/31 05:41:22;;;;;;;5.70;3.03;;;;;;;;;;5057116;28;20157;-71
2022/05/31 05:44:26;;;;;;;3.17;2.92;;;;;;;;;;5024364;28;20048;-69
2022/05/31 05:46:52;;;;;;;8.07;2.97;;;;;;;;;;4997473;28;20049;-73
2022/05/31 05:49:18;;;;;;;3.28;2.58;;;;;;;;;;5024568;28;20105;-71
2022/05/31 05:51:44;;;;;;;5.00;2.67;;;;;;;;;;5055882;28;20036;-72
2022/05/31 05:54:42;;;;;;;7.28;2.75;;;;;;;;;;5027959;28;20539;-72
2022/05/31 05:57:26;;;;;;;2.78;2.50;;;;;;;;;;5057916;28;20044;-72
2022/05/31 06:00:22;;;;;;;3.28;2.40;;;;;;;;;;5002290;28;20119;-71
2022/05/31 06:03:02;;;;;;;3.35;2.97;;;;;;;;;;5055215;28;20406;-71
2022/05/31 06:05:44;;;;;;;2.83;2.72;;;;;;;;;;5058734;28;20043;-70
2022/05/31 06:08:11;;;;;;;2.60;2.40;;;;;;;;;;5045934;28;20116;-72
2022/05/31 06:10:45;;;;;;;2.88;2.42;;;;;;;;;;5025872;28;20056;-70
2022/05/31 06:13:15;;;;;;;5.75;2.70;;;;;;;;;;5039710;28;20381;-72
2022/05/31 06:15:42;;;;;;;1.98;1.88;;;;;;;;;;5030936;28;20045;-71
2022/05/31 06:18:14;;;;;;;5.03;2.72;;;;;;;;;;5058059;28;20036;-71
2022/05/31 06:20:40;;;;;;;7.75;3.30;;;;;;;;;;5044520;28;20063;-72
2022/05/31 06:23:06;;;;;;;4.90;2.60;;;;;;;;;;5038982;28;20741;-71
2022/05/31 06:25:32;;;;;;;14.88;3.28;;;;;;;;;;5056317;28;20127;-72
2022/05/31 06:28:30;;;;;;;7.90;2.92;;;;;;;;;;5030265;28;20552;-71
2022/05/31 06:30:56;;;;;;;7.13;2.85;;;;;;;;;;5053886;28;20049;-72
2022/05/31 06:33:22;;;;;;;7.75;3.30;;;;;;;;;;5030003;28;20047;-72
2022/05/31 06:35:50;;;;;;;9.43;3.85;;;;;;;;;;5034952;28;20045;-73
2022/05/31 06:38:17;;;;;;;9.80;4.03;;;;;;;;;;5055187;28;20071;-72
2022/05/31 06:40:44;;;;;;;3.95;3.53;;;;;;;;;;5051634;28;20286;-70
2022/05/31 06:43:10;;;;;;;7.05;4.85;;;;;;;;;;5054088;28;20052;-69
2022/05/31 06:45:51;;;;;;;7.20;5.68;;;;;;;;;;5054745;28;20045;-70
2022/05/31 06:48:43;;;;;;;5.75;5.35;;;;;;;;;;5028117;28;20120;-69
2022/05/31 06:51:12;;;;;;;7.38;6.68;;;;;;;;;;5045367;28;20049;-71
2022/05/31 09:12:17;;;;;;;5.68;3.47;;;;;;;;;;5048739;28;20221;-69
2022/05/31 09:14:52;;;;;;;4.18;3.38;;;;;;;;;;5032536;28;20063;-70
2022/05/31 09:17:24;;;;;;;4.13;3.75;;;;;;;;;;5050703;28;20079;-71
2022/05/31 09:20:02;;;;;;;7.00;3.63;;;;;;;;;;5046743;28;20421;-72
2022/05/31 09:22:30;;;;;;;3.70;3.40;;;;;;;;;;5030692;28;20136;-72
2022/05/31 09:24:56;;;;;;;3.65;3.30;;;;;;;;;;5046701;28;20045;-71
2022/05/31 09:27:25;;;;;;;4.63;3.67;;;;;;;;;;5032056;28;20044;-70
2022/05/31 09:30:03;;;;;;;4.13;3.42;;;;;;;;;;5050123;28;20113;-72
2022/05/31 09:32:48;;;;;;;4.22;3.42;;;;;;;;;;5050414;28;20040;-72
2022/05/31 09:35:29;;;;;;;4.15;3.30;;;;;;;;;;5049935;28;20040;-72
2022/05/31 09:38:15;;;;;;;4.18;3.45;;;;;;;;;;5032233;28;20032;-73
2022/05/31 09:40:43;;;;;;;4.85;3.63;;;;;;;;;;5049955;28;20037;-71
2022/05/31 09:43:30;;;;;;;5.88;3.22;;;;;;;;;;5050107;28;20071;-73
2022/05/31 09:45:59;;;;;;;2.90;2.70;;;;;;;;;;5009969;28;20043;-72
2022/05/31 09:48:24;;;;;;;4.60;3.45;;;;;;;;;;5032251;28;20071;-72
2022/05/31 09:50:52;;;;;;;5.05;3.08;;;;;;;;;;5014799;28;20120;-70
2022/05/31 09:59:24;;;;;;;3.65;3.25;;;;;;;;;;5038426;28;20527;-72
2022/05/31 10:02:13;;;;;;;3.33;3.13;;;;;;;;;;5007545;28;20052;-71
2022/05/31 10:04:43;;;;;;;3.75;2.80;;;;;;;;;;5013679;28;20042;-72
2022/05/31 10:07:10;;;;;;;2.95;2.70;;;;;;;;;;5049880;28;20055;-72
2022/05/31 10:09:40;;;;;;;6.18;3.40;;;;;;;;;;5032022;28;20053;-72
2022/05/31 10:12:19;;;;;;;3.30;3.10;;;;;;;;;;5031904;28;20049;-72
2022/05/31 10:14:48;;;;;;;3.08;2.70;;;;;;;;;;5048849;28;20041;-72
2022/05/31 10:17:33;;;;;;;4.50;3.28;;;;;;;;;;5032343;28;20041;-71
2022/05/31 10:20:06;;;;;;;4.90;3.28;;;;;;;;;;5049495;28;20060;-72
2022/05/31 10:22:32;;;;;;;3.65;3.35;;;;;;;;;;5046761;28;20051;-72
2022/05/31 10:25:18;;;;;;;3.20;3.00;;;;;;;;;;5048461;28;20086;-73
2022/05/31 10:28:09;;;;;;;3.58;2.90;;;;;;;;;;5049131;28;20084;-72
2022/05/31 10:30:44;;;;;;;3.45;3.25;;;;;;;;;;5029650;28;20045;-73
2022/05/31 10:33:25;;;;;;;4.47;2.97;;;;;;;;;;5013988;28;20084;-72
2022/05/31 10:36:07;;;;;;;6.28;3.08;;;;;;;;;;5022642;28;20041;-72
2022/05/31 10:38:33;;;;;;;6.38;3.10;;;;;;;;;;5049157;28;20576;-72
2022/05/31 10:41:00;;;;;;;5.68;3.10;;;;;;;;;;5050328;28;20147;-72
2022/05/31 10:43:41;;;;;;;4.43;3.30;;;;;;;;;;5050461;28;20040;-72
2022/05/31 10:46:09;;;;;;;5.85;3.13;;;;;;;;;;5049757;28;20401;-72
2022/05/31 10:48:35;;;;;;;2.85;2.60;;;;;;;;;;5049511;28;20041;-72
2022/05/31 10:51:07;;;;;;;4.15;3.10;;;;;;;;;;5049775;28;20083;-72
2022/05/31 10:53:44;;;;;;;4.60;2.83;;;;;;;;;;5016132;28;20496;-72
2022/05/31 10:56:15;;;;;;;3.35;3.15;;;;;;;;;;5051374;28;20048;-71
2022/05/31 10:58:53;;;;;;;6.47;3.08;;;;;;;;;;5051664;28;20049;-71
2022/05/31 11:01:39;;;;;;;3.67;2.95;;;;;;;;;;5050814;28;20037;-72
2022/05/31 11:04:08;;;;;;;3.75;3.00;;;;;;;;;;5031954;28;20472;-73
2022/05/31 11:06:53;;;;;;;3.00;2.80;;;;;;;;;;5032430;28;20045;-71
2022/05/31 11:12:35;;;;;;;5.50;2.38;;;;;;;;;;5031791;28;20057;-72
2022/05/31 11:15:21;;;;;;;4.50;2.42;;;;;;;;;;5031043;28;20101;-72
2022/05/31 11:17:54;;;;;;;6.03;2.42;;;;;;;;;;5031422;28;20419;-72
2022/05/31 11:20:24;;;;;;;4.72;2.60;;;;;;;;;;5048248;28;20517;-72
2022/05/31 11:23:09;;;;;;;4.27;3.43;;;;;;;;;;5044935;28;20084;-72
2022/05/31 11:25:38;;;;;;;3.67;2.70;;;;;;;;;;5029180;28;20296;-72
2022/05/31 11:28:04;;;;;;;4.53;3.00;;;;;;;;;;5029165;28;20041;-72
2022/05/31 11:30:33;;;;;;;3.55;2.78;;;;;;;;;;5028887;28;20049;-72
2022/05/31 11:33:18;;;;;;;4.35;3.03;;;;;;;;;;4995358;28;20081;-72
2022/05/31 11:35:59;;;;;;;3.08;2.85;;;;;;;;;;5029743;28;20092;-72
2022/05/31 11:38:31;;;;;;;7.82;3.50;;;;;;;;;;5029000;28;20037;-72
2022/05/31 11:40:57;;;;;;;4.18;3.00;;;;;;;;;;5028932;28;20045;-72
2022/05/31 11:43:26;;;;;;;4.75;3.15;;;;;;;;;;5029230;28;20521;-72
2022/05/31 11:46:01;;;;;;;4.70;3.05;;;;;;;;;;5028595;28;20103;-73
2022/05/31 11:48:34;;;;;;;2.63;2.45;;;;;;;;;;5028937;28;20046;-72
2022/05/31 11:51:08;;;;;;;3.40;3.05;;;;;;;;;;5014210;28;20051;-72
2022/05/31 11:53:37;;;;;;;3.67;3.20;;;;;;;;;;5014746;28;20078;-72
2022/05/31 11:56:13;;;;;;;5.28;3.40;;;;;;;;;;5014003;28;20099;-71
2022/05/31 11:58:41;;;;;;;3.63;3.00;;;;;;;;;;5014581;28;20080;-72
2022/05/31 12:01:11;;;;;;;4.20;3.55;;;;;;;;;;5014384;28;20045;-71
2022/05/31 12:03:51;;;;;;;5.35;3.35;;;;;;;;;;5032027;28;20041;-73
2022/05/31 12:06:30;;;;;;;3.08;2.90;;;;;;;;;;5032186;28;20037;-72
2022/05/31 12:09:15;;;;;;;5.72;3.30;;;;;;;;;;5032094;28;20473;-73
2022/05/31 12:11:49;;;;;;;7.20;3.20;;;;;;;;;;5020561;28;20080;-72
2022/05/31 12:14:16;;;;;;;9.65;3.08;;;;;;;;;;5031091;28;20037;-73
2022/05/31 12:16:42;;;;;;;3.50;3.20;;;;;;;;;;5041155;28;20049;-72
2022/05/31 12:19:18;;;;;;;6.32;3.03;;;;;;;;;;5034285;28;20060;-72
2022/05/31 12:22:13;;;;;;;4.97;3.38;;;;;;;;;;5052183;28;20037;-71
2022/05/31 12:24:39;;;;;;;3.35;3.17;;;;;;;;;;5014933;28;20053;-73
2022/05/31 12:27:05;;;;;;;3.63;3.40;;;;;;;;;;5031356;28;20118;-72
2022/05/31 12:29:32;;;;;;;3.40;3.20;;;;;;;;;;5031232;28;20444;-72
2022/05/31 12:32:18;;;;;;;4.25;3.60;;;;;;;;;;5013891;28;20055;-72
2022/05/31 12:34:44;;;;;;;4.38;3.95;;;;;;;;;;5013909;28;20130;-72
2022/05/31 12:37:13;;;;;;;4.60;4.20;;;;;;;;;;5031582;28;20120;-72
2022/05/31 12:39:40;;;;;;;5.45;4.78;;;;;;;;;;5031320;28;20433;-71
2022/05/31 12:42:12;;;;;;;5.43;4.97;;;;;;;;;;5013751;28;20048;-70
2022/05/31 12:44:38;;;;;;;4.90;4.47;;;;;;;;;;5013831;28;20353;-72
2022/05/31 12:47:17;;;;;;;6.75;4.80;;;;;;;;;;5013764;28;20304;-72
2022/05/31 12:49:52;;;;;;;5.70;5.10;;;;;;;;;;5031349;28;20131;-71
2022/05/31 12:55:10;;;;;;;6.82;4.60;;;;;;;;;;5031102;28;20045;-71
2022/05/31 13:00:32;;;;;;;4.13;3.83;;;;;;;;;;5029399;28;20033;-71
2022/05/31 13:02:58;;;;;;;4.50;4.10;;;;;;;;;;5030914;28;20124;-70
2022/05/31 13:05:32;;;;;;;4.40;4.00;;;;;;;;;;5030888;28;20045;-71
2022/05/31 13:08:12;;;;;;;4.20;3.90;;;;;;;;;;5013343;28;20513;-71
2022/05/31 13:19:34;;;;;;;5.45;4.60;;;;;;;;;;5001743;28;20045;-70
2022/05/31 13:21:53;;;;;;;8.25;4.78;;;;;;;;;;5032728;28;20099;-70
2022/05/31 13:24:18;;;;;;;5.95;4.30;;;;;;;;;;5063557;28;20041;-70
2022/05/31 13:26:44;;;;;;;6.28;4.82;;;;;;;;;;5052742;28;20055;-71
2022/05/31 13:29:13;;;;;;;4.90;4.03;;;;;;;;;;5052742;28;20451;-70
2022/05/31 13:31:46;;;;;;;9.48;5.72;;;;;;;;;;5070703;28;20087;-70
2022/05/31 13:34:22;;;;;;;5.30;4.90;;;;;;;;;;5052837;28;20094;-70
2022/05/31 13:36:48;;;;;;;6.32;5.00;;;;;;;;;;5070604;28;20497;-71
2022/05/31 13:39:16;;;;;;;7.70;5.25;;;;;;;;;;5070424;28;20102;-71
2022/05/31 13:41:51;;;;;;;6.72;5.50;;;;;;;;;;5070422;28;20048;-71
2022/05/31 13:44:21;;;;;;;6.85;5.65;;;;;;;;;;5070436;28;20127;-72
2022/05/31 13:46:47;;;;;;;7.43;5.45;;;;;;;;;;5036164;28;20076;-70
2022/05/31 13:49:14;;;;;;;5.88;5.25;;;;;;;;;;5052422;28;20070;-70
2022/05/31 13:51:47;;;;;;;6.10;5.50;;;;;;;;;;5069917;28;20537;-71
2022/05/31 13:54:15;;;;;;;5.97;5.47;;;;;;;;;;5052372;28;20040;-70
2022/05/31 13:56:43;;;;;;;6.00;5.38;;;;;;;;;;5069996;28;20124;-71
2022/05/31 13:59:10;;;;;;;6.07;4.88;;;;;;;;;;5069985;28;20416;-71
2022/05/31 14:01:37;;;;;;;6.18;5.57;;;;;;;;;;5052238;28;20071;-71
2022/05/31 14:04:15;;;;;;;4.97;4.30;;;;;;;;;;5069638;28;20114;-72
2022/05/31 14:06:41;;;;;;;5.95;4.30;;;;;;;;;;5069857;28;20096;-72
2022/05/31 14:09:09;;;;;;;7.40;5.10;;;;;;;;;;5069640;28;20044;-72
2022/05/31 14:11:57;;;;;;;4.25;3.85;;;;;;;;;;5051320;28;20052;-72
2022/05/31 14:14:26;;;;;;;5.53;4.97;;;;;;;;;;5051952;28;20072;-72
2022/05/31 14:16:57;;;;;;;4.90;4.50;;;;;;;;;;5069718;28;20131;-73
2022/05/31 14:19:29;;;;;;;4.45;4.00;;;;;;;;;;5070075;28;20040;-72
2022/05/31 14:21:59;;;;;;;4.72;3.67;;;;;;;;;;5052430;28;20246;-74
2022/05/31 14:24:27;;;;;;;4.20;3.87;;;;;;;;;;5052046;28;20051;-71
2022/05/31 14:26:53;;;;;;;6.05;3.50;;;;;;;;;;5069690;28;20040;-73
2022/05/31 14:29:23;;;;;;;7.05;4.05;;;;;;;;;;5051990;28;20045;-71
2022/05/31 14:32:05;;;;;;;3.95;3.65;;;;;;;;;;5051772;28;20048;-72
2022/05/31 14:34:36;;;;;;;4.85;3.92;;;;;;;;;;5051917;28;20040;-72
2022/05/31 14:37:06;;;;;;;5.75;3.85;;;;;;;;;;5070183;28;20101;-72
2022/05/31 14:40:06;;;;;;;6.60;4.50;;;;;;;;;;5052612;28;20108;-72
2022/05/31 14:42:40;;;;;;;6.22;4.50;;;;;;;;;;5053001;28;20090;-72
2022/05/31 14:45:08;;;;;;;9.60;4.68;;;;;;;;;;5069580;28;20055;-72
2022/05/31 14:47:36;;;;;;;6.70;4.60;;;;;;;;;;5052114;28;20055;-72
2022/05/31 14:50:05;;;;;;;6.20;4.28;;;;;;;;;;5069144;28;20049;-73
2022/05/31 14:52:32;;;;;;;7.50;4.10;;;;;;;;;;5034254;28;20044;-73
2022/05/31 14:55:05;;;;;;;4.63;4.03;;;;;;;;;;5068921;28;20068;-73
2022/05/31 14:58:37;;;;;;;3.88;3.60;;;;;;;;;;5069643;28;20531;-72
2022/05/31 15:00:17;;;;;;;5.45;3.65;;;;;;;;;;5050981;28;20226;-72
2022/05/31 15:02:43;;;;;;;5.05;3.80;;;;;;;;;;5069391;28;20116;-73
2022/05/31 15:05:09;;;;;;;4.43;3.17;;;;;;;;;;5069259;28;20504;-72
2022/05/31 15:07:49;;;;;;;5.60;3.70;;;;;;;;;;5070198;28;20192;-72
2022/05/31 15:10:27;;;;;;;5.60;3.80;;;;;;;;;;5067771;28;20060;-72
2022/05/31 15:21:13;;;;;;;3.38;3.05;;;;;;;;;;5069154;28;20127;-72
2022/05/31 15:23:39;;;;;;;5.55;3.10;;;;;;;;;;5051767;28;20135;-73
2022/05/31 15:26:06;;;;;;;3.38;3.10;;;;;;;;;;5054590;28;20503;-73
2022/05/31 15:28:32;;;;;;;5.38;3.33;;;;;;;;;;5055144;28;20036;-72
2022/05/31 15:30:59;;;;;;;3.72;3.42;;;;;;;;;;5072387;28;20139;-73
2022/05/31 15:33:25;;;;;;;4.05;3.42;;;;;;;;;;5072712;28;20041;-72
2022/05/31 15:35:50;;;;;;;3.67;3.38;;;;;;;;;;5072614;28;20389;-72
2022/05/31 15:38:17;;;;;;;4.30;2.92;;;;;;;;;;5072398;28;20505;-73
2022/05/31 15:40:48;;;;;;;5.32;3.67;;;;;;;;;;5054674;28;20044;-73
2022/05/31 15:43:51;;;;;;;9.95;3.53;;;;;;;;;;5054783;28;20048;-72
2022/05/31 15:45:59;;;;;;;3.97;3.63;;;;;;;;;;5052503;28;20063;-72
2022/05/31 15:48:28;;;;;;;5.22;3.45;;;;;;;;;;5052285;28;20072;-71
2022/05/31 15:50:55;;;;;;;5.20;3.58;;;;;;;;;;5034480;28;20061;-72
2022/05/31 15:53:20;;;;;;;6.05;4.60;;;;;;;;;;5052101;28;20037;-72
2022/05/31 15:55:46;;;;;;;4.15;3.80;;;;;;;;;;5017915;28;20048;-72
2022/05/31 15:58:13;;;;;;;4.15;3.75;;;;;;;;;;5052112;28;20045;-72
2022/05/31 16:00:39;;;;;;;4.43;4.00;;;;;;;;;;5051718;28;20064;-72
2022/05/31 16:03:05;;;;;;;3.95;3.55;;;;;;;;;;5017994;28;20476;-72
2022/05/31 16:05:31;;;;;;;6.55;3.88;;;;;;;;;;5052021;28;20091;-73
2022/05/31 16:07:57;;;;;;;5.43;4.90;;;;;;;;;;5052069;28;20045;-73
2022/05/31 16:10:23;;;;;;;5.97;4.60;;;;;;;;;;5051048;28;20567;-72
2022/05/31 16:12:50;;;;;;;5.93;5.35;;;;;;;;;;5051124;28;20481;-72
2022/05/31 16:15:16;;;;;;;7.18;5.25;;;;;;;;;;5050457;28;20495;-72
2022/05/31 16:17:42;;;;;;;3.92;3.53;;;;;;;;;;5052222;28;20053;-72
2022/05/31 16:20:08;;;;;;;3.70;3.40;;;;;;;;;;5051632;28;20082;-72
2022/05/31 16:22:39;;;;;;;4.03;3.28;;;;;;;;;;5052386;28;20051;-72
2022/05/31 16:25:05;;;;;;;8.27;3.95;;;;;;;;;;5052724;28;20495;-72
2022/05/31 16:27:31;;;;;;;5.28;3.65;;;;;;;;;;5054316;28;20048;-72
2022/05/31 16:30:01;;;;;;;7.25;4.40;;;;;;;;;;5071847;28;20050;-72
2022/05/31 16:32:28;;;;;;;6.05;3.60;;;;;;;;;;5054088;28;20040;-72
2022/05/31 16:34:54;;;;;;;7.40;4.55;;;;;;;;;;5071343;28;20045;-72
2022/05/31 16:42:50;;;;;;;7.00;4.40;;;;;;;;;;5071785;28;20357;-72
2022/05/31 16:45:16;;;;;;;3.30;3.10;;;;;;;;;;5071557;28;20044;-73
2022/05/31 16:47:44;;;;;;;4.65;4.10;;;;;;;;;;5071512;28;20043;-71
2022/05/31 16:50:11;;;;;;;4.30;3.40;;;;;;;;;;5052935;28;20052;-72
2022/05/31 16:52:39;;;;;;;5.95;3.80;;;;;;;;;;5071262;28;20516;-72
2022/05/31 16:55:05;;;;;;;5.32;2.88;;;;;;;;;;5052957;28;20487;-73
2022/05/31 16:57:31;;;;;;;3.78;3.58;;;;;;;;;;5071127;28;20447;-72
2022/05/31 16:59:57;;;;;;;2.92;2.72;;;;;;;;;;5071318;28;20044;-72
2022/05/31 17:02:27;;;;;;;3.45;3.25;;;;;;;;;;5070866;28;20527;-71
2022/05/31 17:04:52;;;;;;;3.92;3.40;;;;;;;;;;5053850;28;20500;-72
2022/05/31 17:15:37;;;;;;;7.00;6.32;;;;;;;;;;5070917;28;20041;-71
2022/05/31 17:18:03;;;;;;;9.82;8.93;;;;;;;;;;5053421;28;20508;-71
2022/05/31 17:20:33;;;;;;;8.82;6.90;;;;;;;;;;5070654;28;20097;-71
2022/05/31 17:23:00;;;;;;;11.85;10.18;;;;;;;;;;5052977;28;20527;-71
2022/05/31 17:25:27;;;;;;;7.22;6.65;;;;;;;;;;5052622;28;20075;-71
2022/05/31 17:27:54;;;;;;;10.77;7.45;;;;;;;;;;5052943;28;20045;-71
2022/05/31 17:30:21;;;;;;;15.02;9.18;;;;;;;;;;5052590;28;20405;-72
2022/05/31 17:32:47;;;;;;;8.50;7.80;;;;;;;;;;5063794;28;20051;-71
2022/05/31 17:35:13;;;;;;;7.10;6.30;;;;;;;;;;5049868;28;20044;-71
2022/05/31 17:37:39;;;;;;;7.97;7.18;;;;;;;;;;5047951;28;20040;-73
2022/05/31 17:40:05;;;;;;;10.05;8.00;;;;;;;;;;5066461;28;20032;-72
2022/05/31 17:42:33;;;;;;;15.32;8.38;;;;;;;;;;5065240;28;20179;-73
2022/05/31 17:44:59;;;;;;;9.05;7.10;;;;;;;;;;5069119;28;20041;-73
2022/05/31 17:47:25;;;;;;;8.50;7.80;;;;;;;;;;5057594;28;20123;-73
2022/05/31 17:49:51;;;;;;;7.30;6.80;;;;;;;;;;5060537;28;20167;-73
2022/05/31 17:52:16;;;;;;;12.55;6.65;;;;;;;;;;5058398;28;20050;-72
2022/05/31 17:54:42;;;;;;;7.50;6.82;;;;;;;;;;5060794;28;20049;-73
2022/05/31 17:57:09;;;;;;;17.58;9.02;;;;;;;;;;5060558;28;20127;-73
2022/05/31 17:59:35;;;;;;;6.20;5.70;;;;;;;;;;5063349;28;20047;-72
2022/05/31 18:02:02;;;;;;;6.18;5.57;;;;;;;;;;5062736;28;20039;-74
2022/05/31 18:04:32;;;;;;;5.57;5.07;;;;;;;;;;5041379;28;20069;-73
2022/05/31 18:06:58;;;;;;;5.95;5.50;;;;;;;;;;5061225;28;20394;-73
2022/05/31 18:09:24;;;;;;;5.00;4.47;;;;;;;;;;5062620;28;20047;-73
2022/05/31 18:11:50;;;;;;;6.60;4.70;;;;;;;;;;5061365;28;20052;-73
2022/05/31 18:14:18;;;;;;;7.35;6.85;;;;;;;;;;5023008;28;20037;-71
2022/05/31 18:16:43;;;;;;;7.88;6.45;;;;;;;;;;5061894;28;20128;-70
2022/05/31 18:19:09;;;;;;;6.30;4.90;;;;;;;;;;5059579;28;20479;-71